createdAt,value
2023-02-01T00:01:41.639Z,2.90
2023-02-01T00:04:19.234Z,3.80
2023-02-01T00:07:14.290Z,4.10
2023-02-01T00:09:50.749Z,4.40
2023-02-01T00:12:27.940Z,7.00
2023-02-01T00:15:16.546Z,5.50
2023-02-01T00:18:07.438Z,5.10
2023-02-01T00:21:07.527Z,5.30
2023-02-01T00:24:04.555Z,5.30
2023-02-01T00:26:46.700Z,4.00
2023-02-01T00:29:27.564Z,5.30
2023-02-01T00:32:02.552Z,4.80
2023-02-01T00:34:45.927Z,3.80
2023-02-01T00:37:23.989Z,3.00
2023-02-01T00:40:00.465Z,4.00
2023-02-01T00:43:00.635Z,2.50
2023-02-01T00:45:48.448Z,2.80
2023-02-01T00:48:18.099Z,3.20
2023-02-01T00:50:54.410Z,3.40
2023-02-01T00:54:00.894Z,3.30
2023-02-01T00:56:21.615Z,3.20
2023-02-01T00:59:19.131Z,4.10
2023-02-01T01:02:00.142Z,3.80
2023-02-01T01:07:24.971Z,3.90
2023-02-01T01:10:05.161Z,4.50
2023-02-01T01:12:55.758Z,3.20
2023-02-01T01:15:44.754Z,4.20
2023-02-01T01:18:19.039Z,4.40
2023-02-01T01:20:53.775Z,4.20
2023-02-01T01:23:41.866Z,5.10
2023-02-01T01:26:28.087Z,4.60
2023-02-01T01:29:13.073Z,5.60
2023-02-01T01:31:55.292Z,4.40
2023-02-01T01:34:32.528Z,5.20
2023-02-01T01:37:02.076Z,5.60
2023-02-01T01:39:44.079Z,3.40
2023-02-01T01:42:28.465Z,4.50
2023-02-01T01:45:36.072Z,4.20
2023-02-01T01:48:34.050Z,5.20
2023-02-01T01:51:23.518Z,5.40
2023-02-01T01:54:43.589Z,4.30
2023-02-01T01:57:31.339Z,3.90
2023-02-01T02:00:18.651Z,3.90
2023-02-01T02:02:54.468Z,4.20
2023-02-01T02:05:33.941Z,4.80
2023-02-01T02:08:11.391Z,3.90
2023-02-01T02:11:01.163Z,4.10
2023-02-01T02:13:45.381Z,4.20
2023-02-01T02:16:58.267Z,3.90
2023-02-01T02:20:24.561Z,3.70
2023-02-01T02:23:54.616Z,3.80
2023-02-01T02:27:41.252Z,3.90
2023-02-01T02:31:00.571Z,3.80
2023-02-01T02:34:34.731Z,4.00
2023-02-01T02:38:22.640Z,4.50
2023-02-01T02:41:11.956Z,3.40
2023-02-01T02:44:18.274Z,4.00
2023-02-01T02:47:29.833Z,5.00
2023-02-01T02:50:34.634Z,4.30
2023-02-01T02:53:57.483Z,3.30
2023-02-01T02:57:08.794Z,3.90
2023-02-01T03:00:28.955Z,3.30
2023-02-01T03:03:29.277Z,4.10
2023-02-01T03:06:23.856Z,4.20
2023-02-01T03:09:19.918Z,3.50
2023-02-01T03:12:24.648Z,3.40
2023-02-01T03:15:30.316Z,4.70
2023-02-01T03:18:22.112Z,4.10
2023-02-01T03:20:58.129Z,3.70
2023-02-01T03:23:40.267Z,3.30
2023-02-01T03:26:33.236Z,4.20
2023-02-01T03:29:21.186Z,4.50
2023-02-01T03:31:58.397Z,4.80
2023-02-01T03:34:33.918Z,3.30
2023-02-01T03:37:31.145Z,3.70
2023-02-01T03:40:19.745Z,4.80
2023-02-01T03:43:11.216Z,3.70
2023-02-01T03:46:00.945Z,4.90
2023-02-01T03:48:44.103Z,4.70
2023-02-01T03:51:24.717Z,5.20
2023-02-01T03:54:03.380Z,5.10
2023-02-01T03:56:47.387Z,4.50
2023-02-01T03:59:19.111Z,4.30
2023-02-01T04:01:59.857Z,5.30
2023-02-01T04:05:07.647Z,5.30
2023-02-01T04:08:01.110Z,4.00
2023-02-01T04:10:44.372Z,4.60
2023-02-01T04:13:19.877Z,4.50
2023-02-01T04:16:10.621Z,3.60
2023-02-01T04:21:45.439Z,4.30
2023-02-01T04:24:36.884Z,4.90
2023-02-01T04:27:14.031Z,4.30
2023-02-01T04:29:47.491Z,4.90
2023-02-01T04:32:23.899Z,5.40
2023-02-01T04:34:56.520Z,5.50
2023-02-01T04:37:40.533Z,5.50
2023-02-01T04:40:16.198Z,6.40
2023-02-01T04:42:54.266Z,5.80
2023-02-01T04:45:28.006Z,6.20
2023-02-01T04:48:13.506Z,7.00
2023-02-01T04:50:48.202Z,5.80
2023-02-01T04:53:23.636Z,5.80
2023-02-01T04:55:59.850Z,6.00
2023-02-01T04:59:00.262Z,6.00
2023-02-01T05:01:39.325Z,5.80
2023-02-01T05:04:27.805Z,5.30
2023-02-01T05:07:11.873Z,6.70
2023-02-01T05:13:43.872Z,5.80
2023-02-01T05:16:45.313Z,6.50
2023-02-01T05:19:53.195Z,5.40
2023-02-01T05:22:53.579Z,6.80
2023-02-01T05:26:06.721Z,5.50
2023-02-01T05:29:51.749Z,6.00
2023-02-01T05:33:15.995Z,6.10
2023-02-01T05:36:24.135Z,5.40
2023-02-01T05:39:50.565Z,6.70
2023-02-01T05:43:05.424Z,6.30
2023-02-01T05:46:19.614Z,5.30
2023-02-01T05:49:26.403Z,5.20
2023-02-01T05:53:53.950Z,5.80
2023-02-01T05:56:53.161Z,5.50
2023-02-01T05:59:42.977Z,6.30
2023-02-01T06:02:40.950Z,6.60
2023-02-01T06:05:24.005Z,6.50
2023-02-01T06:08:58.271Z,6.70
2023-02-01T06:11:34.043Z,5.80
2023-02-01T06:14:13.059Z,7.00
2023-02-01T06:17:18.589Z,7.70
2023-02-01T06:20:02.622Z,7.50
2023-02-01T06:22:54.995Z,8.60
2023-02-01T06:25:33.731Z,8.60
2023-02-01T06:28:11.091Z,7.10
2023-02-01T06:31:02.033Z,6.20
2023-02-01T06:39:07.377Z,7.80
2023-02-01T06:42:59.138Z,6.50
2023-02-01T06:47:05.835Z,6.90
2023-02-01T07:23:14.223Z,5.80
2023-02-01T07:35:25.282Z,8.10
2023-02-01T07:40:03.234Z,7.70
2023-02-01T07:45:20.888Z,7.80
2023-02-01T08:20:57.503Z,13.80
2023-02-01T08:25:29.981Z,12.10
2023-02-01T08:28:50.138Z,10.30
2023-02-01T08:32:20.726Z,13.90
2023-02-01T08:36:07.985Z,29.90
2023-02-01T08:40:19.685Z,30.30
2023-02-01T08:43:26.428Z,10.00
2023-02-01T08:46:25.979Z,8.40
2023-02-01T08:49:37.285Z,8.00
2023-02-01T08:52:37.921Z,7.40
2023-02-01T08:56:06.481Z,7.20
2023-02-01T08:59:37.898Z,8.20
2023-02-01T09:03:05.809Z,11.20
2023-02-01T09:06:55.506Z,13.50
2023-02-01T09:09:55.908Z,11.30
2023-02-01T09:13:15.325Z,8.30
2023-02-01T09:16:39.619Z,7.50
2023-02-01T09:19:50.085Z,6.70
2023-02-01T09:22:56.821Z,8.40
2023-02-01T09:39:22.674Z,7.50
2023-02-01T09:43:44.723Z,7.80
2023-02-01T09:47:14.736Z,8.40
2023-02-01T10:17:13.741Z,6.80
2023-02-01T10:20:23.333Z,10.70
2023-02-01T10:28:12.196Z,6.80
2023-02-01T10:36:20.511Z,8.70
2023-02-01T11:11:38.518Z,10.40
2023-02-01T12:44:14.398Z,12.50
2023-02-01T13:18:56.457Z,6.30
2023-02-01T18:34:40.596Z,11.20
2023-02-01T19:12:44.101Z,10.20
2023-02-01T20:57:54.877Z,17.90
2023-02-01T21:20:51.548Z,14.30
2023-02-01T21:24:43.295Z,18.50
2023-02-01T21:28:01.942Z,15.50
2023-02-01T21:33:18.375Z,13.60
2023-02-01T21:39:02.417Z,6.40
2023-02-01T21:43:05.132Z,8.00
2023-02-01T23:05:15.623Z,3.80
2023-02-01T23:25:57.343Z,4.90
2023-02-01T23:59:00.845Z,6.80
